SWU57 LIPB-EDDV
Flight info
| Callsign | SWU57 |
|---|---|
| Flight time | 1h 35m |
| Altitude | 16000 |
| Route | ALESE1W ALESE L12 NAXAV DCT EKPIS DCT BRENO M726 LASTO M852 BIRKA T803 GITEX GITEX1X |
| Aircraft | AT76/M-SDFGIRY/S |
Departure
| Time | 2026-04-26 17:02 |
|---|---|
| Airport | Bolzano Airport (LIPB) |
Arrival
| Time | 2026-04-26 18:37 |
|---|---|
| Airport | Hannover Airport (EDDV) |
| Time | Latitude | Longitude | Altitude | Speed | Heading |
|---|---|---|---|---|---|
| 2026-04-26 16:49 | 46.46317 | 11.32894 | 787 ft | 0 kts | 101° |
| 2026-04-26 16:58 | 46.46325 | 11.32838 | 787 ft | 0 kts | 101° |
| 2026-04-26 16:59 | 46.46327 | 11.32841 | 787 ft | 1 kts | 66° |
| 2026-04-26 16:59 | 46.46360 | 11.32843 | 787 ft | 8 kts | 3° |
| 2026-04-26 17:00 | 46.46522 | 11.32881 | 789 ft | 13 kts | 15° |
| 2026-04-26 17:00 | 46.46681 | 11.32903 | 791 ft | 6 kts | 286° |
| 2026-04-26 17:00 | 46.46683 | 11.32849 | 790 ft | 12 kts | 277° |
| 2026-04-26 17:01 | 46.46656 | 11.32804 | 789 ft | 0 kts | 186° |
| 2026-04-26 17:01 | 46.46616 | 11.32794 | 788 ft | 26 kts | 191° |
| 2026-04-26 17:01 | 46.46279 | 11.32711 | 786 ft | 73 kts | 190° |
| 2026-04-26 17:01 | 46.45613 | 11.32539 | 782 ft | 120 kts | 191° |
| 2026-04-26 17:02 | 46.44809 | 11.32329 | 1381 ft | 110 kts | 188° |
| 2026-04-26 17:02 | 46.43996 | 11.32068 | 1674 ft | 135 kts | 190° |
| 2026-04-26 17:02 | 46.43066 | 11.31603 | 2106 ft | 144 kts | 208° |
| 2026-04-26 17:02 | 46.42187 | 11.30873 | 2665 ft | 145 kts | 210° |
| 2026-04-26 17:03 | 46.41315 | 11.30141 | 3080 ft | 146 kts | 207° |
| 2026-04-26 17:03 | 46.40410 | 11.29450 | 3577 ft | 151 kts | 203° |
| 2026-04-26 17:03 | 46.39446 | 11.28829 | 4227 ft | 152 kts | 201° |
| 2026-04-26 17:03 | 46.38452 | 11.28297 | 4826 ft | 151 kts | 199° |
| 2026-04-26 17:04 | 46.37460 | 11.27817 | 5336 ft | 152 kts | 198° |
| 2026-04-26 17:04 | 46.36442 | 11.27351 | 5885 ft | 153 kts | 197° |
| 2026-04-26 17:04 | 46.35433 | 11.26892 | 6413 ft | 154 kts | 198° |
| 2026-04-26 17:04 | 46.34392 | 11.26419 | 7074 ft | 161 kts | 198° |
| 2026-04-26 17:05 | 46.33282 | 11.25918 | 7422 ft | 173 kts | 198° |
| 2026-04-26 17:05 | 46.32091 | 11.25371 | 7807 ft | 183 kts | 198° |
| 2026-04-26 17:05 | 46.30895 | 11.24832 | 8415 ft | 179 kts | 198° |
| 2026-04-26 17:05 | 46.29713 | 11.24313 | 9043 ft | 174 kts | 197° |
| 2026-04-26 17:06 | 46.28550 | 11.23813 | 9541 ft | 180 kts | 197° |
| 2026-04-26 17:06 | 46.27345 | 11.23296 | 10074 ft | 183 kts | 198° |
| 2026-04-26 17:06 | 46.26110 | 11.22741 | 10561 ft | 185 kts | 198° |
| 2026-04-26 17:06 | 46.24873 | 11.22194 | 11033 ft | 188 kts | 198° |
| 2026-04-26 17:07 | 46.23614 | 11.21617 | 11544 ft | 190 kts | 199° |
| 2026-04-26 17:07 | 46.22351 | 11.21030 | 12032 ft | 193 kts | 199° |
| 2026-04-26 17:07 | 46.21040 | 11.20426 | 12352 ft | 207 kts | 199° |
| 2026-04-26 17:07 | 46.19637 | 11.19645 | 12495 ft | 223 kts | 217° |
| 2026-04-26 17:08 | 46.18684 | 11.17888 | 12646 ft | 232 kts | 254° |
| 2026-04-26 17:08 | 46.18664 | 11.15563 | 12778 ft | 242 kts | 289° |
| 2026-04-26 17:08 | 46.19646 | 11.13552 | 12916 ft | 251 kts | 323° |
| 2026-04-26 17:08 | 46.21271 | 11.12655 | 13035 ft | 261 kts | 355° |
| 2026-04-26 17:09 | 46.23072 | 11.13174 | 13179 ft | 270 kts | 24° |
| 2026-04-26 17:09 | 46.24211 | 11.13920 | 13282 ft | 271 kts | 17° |
| 2026-04-26 17:09 | 46.26670 | 11.14698 | 13461 ft | 274 kts | 9° |
| 2026-04-26 17:09 | 46.28542 | 11.15252 | 13571 ft | 278 kts | 11° |
| 2026-04-26 17:10 | 46.30442 | 11.15950 | 13734 ft | 283 kts | 14° |
| 2026-04-26 17:10 | 46.32345 | 11.16742 | 13951 ft | 284 kts | 14° |
| 2026-04-26 17:10 | 46.34230 | 11.17541 | 14141 ft | 283 kts | 14° |
| 2026-04-26 17:10 | 46.36118 | 11.18342 | 14348 ft | 278 kts | 14° |
| 2026-04-26 17:11 | 46.37953 | 11.19087 | 14496 ft | 275 kts | 14° |
| 2026-04-26 17:11 | 46.39798 | 11.19826 | 14615 ft | 274 kts | 14° |
| 2026-04-26 17:11 | 46.41618 | 11.20562 | 14516 ft | 273 kts | 14° |
| 2026-04-26 17:11 | 46.43455 | 11.21300 | 14617 ft | 272 kts | 13° |
| 2026-04-26 17:12 | 46.47085 | 11.22764 | 14866 ft | 270 kts | 14° |
| 2026-04-26 17:12 | 46.48878 | 11.23502 | 14928 ft | 269 kts | 14° |
| 2026-04-26 17:13 | 46.51867 | 11.24735 | 15145 ft | 268 kts | 14° |
| 2026-04-26 17:13 | 46.53644 | 11.25473 | 15280 ft | 267 kts | 14° |
| 2026-04-26 17:13 | 46.57247 | 11.26970 | 15544 ft | 269 kts | 14° |
| 2026-04-26 17:14 | 46.59043 | 11.27720 | 15675 ft | 270 kts | 14° |
| 2026-04-26 17:14 | 46.62662 | 11.29230 | 15929 ft | 271 kts | 14° |
| 2026-04-26 17:14 | 46.64465 | 11.29983 | 15995 ft | 274 kts | 14° |
| 2026-04-26 17:15 | 46.68167 | 11.31531 | 16047 ft | 278 kts | 14° |
| 2026-04-26 17:15 | 46.70017 | 11.32305 | 16015 ft | 280 kts | 14° |
| 2026-04-26 17:15 | 46.71900 | 11.33095 | 16039 ft | 280 kts | 14° |
| 2026-04-26 17:16 | 46.73759 | 11.33878 | 16058 ft | 280 kts | 14° |
| 2026-04-26 17:16 | 46.75652 | 11.34670 | 16077 ft | 282 kts | 14° |
| 2026-04-26 17:16 | 46.77549 | 11.35463 | 16109 ft | 282 kts | 13° |
| 2026-04-26 17:16 | 46.79433 | 11.36255 | 16111 ft | 285 kts | 14° |
| 2026-04-26 17:17 | 46.81348 | 11.37072 | 16123 ft | 287 kts | 14° |
| 2026-04-26 17:17 | 46.83256 | 11.37888 | 16134 ft | 289 kts | 14° |
| 2026-04-26 17:17 | 46.84546 | 11.38441 | 16095 ft | 289 kts | 14° |
| 2026-04-26 17:17 | 46.86442 | 11.39251 | 16124 ft | 289 kts | 14° |
| 2026-04-26 17:18 | 46.88377 | 11.40088 | 16117 ft | 290 kts | 14° |
| 2026-04-26 17:18 | 46.90323 | 11.40929 | 16090 ft | 289 kts | 13° |
| 2026-04-26 17:18 | 46.92286 | 11.41261 | 16106 ft | 281 kts | 356° |
| 2026-04-26 17:18 | 46.94224 | 11.41091 | 16120 ft | 280 kts | 353° |
| 2026-04-26 17:19 | 46.98125 | 11.40759 | 16123 ft | 282 kts | 356° |
| 2026-04-26 17:19 | 47.00076 | 11.40711 | 16127 ft | 284 kts | 357° |
| 2026-04-26 17:19 | 47.01703 | 11.40683 | 16110 ft | 285 kts | 357° |
| 2026-04-26 17:20 | 47.03661 | 11.40632 | 16122 ft | 284 kts | 356° |
| 2026-04-26 17:20 | 47.04334 | 11.40617 | 16137 ft | 284 kts | 356° |
| 2026-04-26 17:20 | 47.07624 | 11.40535 | 16131 ft | 286 kts | 356° |
| 2026-04-26 17:20 | 47.09616 | 11.40481 | 16118 ft | 286 kts | 356° |
| 2026-04-26 17:21 | 47.11597 | 11.40431 | 16126 ft | 286 kts | 356° |
| 2026-04-26 17:21 | 47.13592 | 11.40380 | 16115 ft | 285 kts | 356° |
| 2026-04-26 17:21 | 47.15560 | 11.40332 | 16128 ft | 285 kts | 356° |
| 2026-04-26 17:21 | 47.17557 | 11.40277 | 16157 ft | 286 kts | 356° |
| 2026-04-26 17:22 | 47.19532 | 11.40224 | 16139 ft | 287 kts | 356° |
| 2026-04-26 17:22 | 47.20865 | 11.40189 | 16131 ft | 288 kts | 356° |
| 2026-04-26 17:22 | 47.22881 | 11.40138 | 16143 ft | 288 kts | 356° |
| 2026-04-26 17:22 | 47.24872 | 11.40131 | 16132 ft | 289 kts | 358° |
| 2026-04-26 17:23 | 47.26886 | 11.40128 | 16131 ft | 288 kts | 356° |
| 2026-04-26 17:23 | 47.28897 | 11.40069 | 16126 ft | 288 kts | 356° |
| 2026-04-26 17:23 | 47.30879 | 11.40012 | 16126 ft | 287 kts | 356° |
| 2026-04-26 17:23 | 47.33533 | 11.39947 | 16135 ft | 287 kts | 356° |
| 2026-04-26 17:24 | 47.34881 | 11.39910 | 16135 ft | 287 kts | 356° |
| 2026-04-26 17:24 | 47.36878 | 11.39856 | 16127 ft | 287 kts | 356° |
| 2026-04-26 17:24 | 47.38870 | 11.39808 | 16142 ft | 288 kts | 356° |
| 2026-04-26 17:24 | 47.40890 | 11.39753 | 16127 ft | 288 kts | 356° |
| 2026-04-26 17:25 | 47.42876 | 11.39704 | 16123 ft | 287 kts | 356° |
| 2026-04-26 17:25 | 47.44865 | 11.39654 | 16149 ft | 287 kts | 356° |
| 2026-04-26 17:25 | 47.46869 | 11.39603 | 16137 ft | 287 kts | 356° |
| 2026-04-26 17:25 | 47.48860 | 11.39549 | 16137 ft | 287 kts | 356° |
| 2026-04-26 17:26 | 47.50857 | 11.39497 | 16144 ft | 287 kts | 356° |
| 2026-04-26 17:26 | 47.52868 | 11.39447 | 16120 ft | 287 kts | 356° |
| 2026-04-26 17:26 | 47.54847 | 11.39385 | 16148 ft | 285 kts | 356° |
| 2026-04-26 17:26 | 47.56822 | 11.39337 | 16153 ft | 285 kts | 356° |
| 2026-04-26 17:27 | 47.58821 | 11.39287 | 16153 ft | 285 kts | 356° |
| 2026-04-26 17:27 | 47.60793 | 11.39237 | 16167 ft | 285 kts | 356° |
| 2026-04-26 17:27 | 47.62787 | 11.39183 | 16159 ft | 284 kts | 356° |
| 2026-04-26 17:27 | 47.64750 | 11.39135 | 16182 ft | 285 kts | 356° |
| 2026-04-26 17:28 | 47.66744 | 11.39082 | 16172 ft | 285 kts | 356° |
| 2026-04-26 17:28 | 47.68734 | 11.39030 | 16169 ft | 286 kts | 356° |
| 2026-04-26 17:28 | 47.70712 | 11.38980 | 16173 ft | 286 kts | 356° |
| 2026-04-26 17:28 | 47.72714 | 11.38928 | 16172 ft | 286 kts | 356° |
| 2026-04-26 17:29 | 47.74694 | 11.38875 | 16180 ft | 286 kts | 356° |
| 2026-04-26 17:29 | 47.76012 | 11.38841 | 16185 ft | 286 kts | 356° |
| 2026-04-26 17:29 | 47.78658 | 11.38770 | 16182 ft | 286 kts | 356° |
| 2026-04-26 17:29 | 47.80654 | 11.38717 | 16188 ft | 286 kts | 356° |
| 2026-04-26 17:30 | 47.82624 | 11.38666 | 16194 ft | 285 kts | 356° |
| 2026-04-26 17:30 | 47.84623 | 11.38612 | 16188 ft | 285 kts | 356° |
| 2026-04-26 17:30 | 47.86596 | 11.38560 | 16194 ft | 285 kts | 356° |
| 2026-04-26 17:30 | 47.88577 | 11.38439 | 16207 ft | 284 kts | 351° |
| 2026-04-26 17:31 | 47.90541 | 11.38025 | 16211 ft | 283 kts | 348° |
| 2026-04-26 17:31 | 47.92486 | 11.37558 | 16206 ft | 283 kts | 348° |
| 2026-04-26 17:31 | 47.94420 | 11.37148 | 16203 ft | 283 kts | 350° |
| 2026-04-26 17:31 | 47.96372 | 11.36803 | 16201 ft | 283 kts | 351° |
| 2026-04-26 17:32 | 47.98334 | 11.36461 | 16214 ft | 283 kts | 351° |
| 2026-04-26 17:32 | 48.00279 | 11.36113 | 16221 ft | 283 kts | 350° |
| 2026-04-26 17:32 | 48.02251 | 11.35764 | 16208 ft | 284 kts | 350° |
| 2026-04-26 17:32 | 48.04221 | 11.35411 | 16206 ft | 283 kts | 350° |
| 2026-04-26 17:33 | 48.06155 | 11.35062 | 16208 ft | 283 kts | 350° |
| 2026-04-26 17:33 | 48.08115 | 11.34708 | 16216 ft | 283 kts | 350° |
| 2026-04-26 17:33 | 48.10066 | 11.34358 | 16207 ft | 284 kts | 350° |
| 2026-04-26 17:34 | 48.13989 | 11.33610 | 16205 ft | 284 kts | 349° |
| 2026-04-26 17:34 | 48.15958 | 11.33219 | 16215 ft | 284 kts | 349° |
| 2026-04-26 17:34 | 48.17899 | 11.32834 | 16208 ft | 284 kts | 350° |
| 2026-04-26 17:34 | 48.19874 | 11.32445 | 16214 ft | 284 kts | 350° |
| 2026-04-26 17:35 | 48.21823 | 11.32065 | 16205 ft | 284 kts | 350° |
| 2026-04-26 17:35 | 48.23787 | 11.31683 | 16207 ft | 284 kts | 350° |
| 2026-04-26 17:35 | 48.25765 | 11.31299 | 16208 ft | 284 kts | 350° |
| 2026-04-26 17:35 | 48.27708 | 11.30939 | 16214 ft | 284 kts | 351° |
| 2026-04-26 17:36 | 48.29680 | 11.30620 | 16209 ft | 285 kts | 351° |
| 2026-04-26 17:36 | 48.31644 | 11.30309 | 16224 ft | 285 kts | 351° |
| 2026-04-26 17:36 | 48.33605 | 11.29998 | 16209 ft | 285 kts | 351° |
| 2026-04-26 17:36 | 48.35585 | 11.29685 | 16213 ft | 285 kts | 351° |
| 2026-04-26 17:37 | 48.37549 | 11.29377 | 16209 ft | 285 kts | 351° |
| 2026-04-26 17:37 | 48.39530 | 11.29062 | 16212 ft | 285 kts | 351° |
| 2026-04-26 17:37 | 48.41487 | 11.28752 | 16210 ft | 285 kts | 351° |
| 2026-04-26 17:38 | 48.45423 | 11.28128 | 16211 ft | 285 kts | 351° |
| 2026-04-26 17:38 | 48.47400 | 11.27818 | 16211 ft | 285 kts | 351° |
| 2026-04-26 17:38 | 48.49374 | 11.27504 | 16209 ft | 284 kts | 351° |
| 2026-04-26 17:38 | 48.51327 | 11.27192 | 16212 ft | 284 kts | 351° |
| 2026-04-26 17:39 | 48.53311 | 11.26875 | 16183 ft | 284 kts | 351° |
| 2026-04-26 17:39 | 48.55267 | 11.26564 | 16201 ft | 284 kts | 351° |
| 2026-04-26 17:39 | 48.57244 | 11.26251 | 16205 ft | 285 kts | 351° |
| 2026-04-26 17:39 | 48.59195 | 11.25939 | 16208 ft | 285 kts | 351° |
| 2026-04-26 17:40 | 48.61173 | 11.25625 | 16211 ft | 285 kts | 352° |
| 2026-04-26 17:40 | 48.62504 | 11.25410 | 16206 ft | 286 kts | 351° |
| 2026-04-26 17:40 | 48.65132 | 11.24984 | 16212 ft | 286 kts | 352° |
| 2026-04-26 17:40 | 48.67122 | 11.24676 | 16209 ft | 286 kts | 352° |
| 2026-04-26 17:41 | 48.69107 | 11.24358 | 16210 ft | 286 kts | 352° |
| 2026-04-26 17:41 | 48.71070 | 11.24039 | 16215 ft | 286 kts | 352° |
| 2026-04-26 17:41 | 48.73063 | 11.23721 | 16211 ft | 286 kts | 352° |
| 2026-04-26 17:41 | 48.75032 | 11.23403 | 16217 ft | 286 kts | 352° |
| 2026-04-26 17:42 | 48.76995 | 11.23087 | 16211 ft | 286 kts | 352° |
| 2026-04-26 17:42 | 48.78992 | 11.22770 | 16209 ft | 286 kts | 352° |
| 2026-04-26 17:42 | 48.80954 | 11.22451 | 16210 ft | 286 kts | 352° |
| 2026-04-26 17:42 | 48.82938 | 11.22127 | 16210 ft | 286 kts | 352° |
| 2026-04-26 17:43 | 48.84908 | 11.21804 | 16210 ft | 285 kts | 352° |
| 2026-04-26 17:43 | 48.86914 | 11.21748 | 16216 ft | 287 kts | 359° |
| 2026-04-26 17:43 | 48.88915 | 11.21877 | 16214 ft | 287 kts | 0° |
| 2026-04-26 17:43 | 48.90900 | 11.21993 | 16213 ft | 287 kts | 359° |
| 2026-04-26 17:44 | 48.92897 | 11.22032 | 16221 ft | 287 kts | 358° |
| 2026-04-26 17:44 | 48.94909 | 11.22033 | 16221 ft | 287 kts | 358° |
| 2026-04-26 17:44 | 48.96884 | 11.22042 | 16218 ft | 287 kts | 358° |
| 2026-04-26 17:44 | 48.98885 | 11.22056 | 16221 ft | 287 kts | 358° |
| 2026-04-26 17:45 | 49.00876 | 11.22064 | 16221 ft | 287 kts | 358° |
| 2026-04-26 17:45 | 49.02874 | 11.22076 | 16226 ft | 287 kts | 358° |
| 2026-04-26 17:45 | 49.04882 | 11.22085 | 16235 ft | 287 kts | 358° |
| 2026-04-26 17:45 | 49.06862 | 11.22097 | 16229 ft | 287 kts | 358° |
| 2026-04-26 17:46 | 49.08861 | 11.22111 | 16230 ft | 287 kts | 358° |
| 2026-04-26 17:46 | 49.10883 | 11.22124 | 16240 ft | 287 kts | 358° |
| 2026-04-26 17:46 | 49.12865 | 11.22135 | 16227 ft | 287 kts | 358° |
| 2026-04-26 17:46 | 49.14873 | 11.22148 | 16234 ft | 287 kts | 358° |
| 2026-04-26 17:47 | 49.16850 | 11.22155 | 16237 ft | 287 kts | 358° |
| 2026-04-26 17:47 | 49.18210 | 11.22164 | 16232 ft | 287 kts | 358° |
| 2026-04-26 17:47 | 49.20865 | 11.22183 | 16233 ft | 287 kts | 358° |
| 2026-04-26 17:47 | 49.22851 | 11.22199 | 16246 ft | 287 kts | 358° |
| 2026-04-26 17:48 | 49.24833 | 11.22207 | 16242 ft | 287 kts | 358° |
| 2026-04-26 17:48 | 49.26844 | 11.22224 | 16242 ft | 286 kts | 358° |
| 2026-04-26 17:48 | 49.28820 | 11.22242 | 16234 ft | 286 kts | 358° |
| 2026-04-26 17:48 | 49.30805 | 11.22257 | 16234 ft | 286 kts | 358° |
| 2026-04-26 17:49 | 49.32796 | 11.22275 | 16239 ft | 286 kts | 358° |
| 2026-04-26 17:49 | 49.34801 | 11.22290 | 16242 ft | 286 kts | 358° |
| 2026-04-26 17:49 | 49.36770 | 11.22307 | 16243 ft | 286 kts | 358° |
| 2026-04-26 17:49 | 49.38765 | 11.22323 | 16242 ft | 286 kts | 358° |
| 2026-04-26 17:50 | 49.40770 | 11.22340 | 16235 ft | 286 kts | 358° |
| 2026-04-26 17:50 | 49.42743 | 11.22356 | 16237 ft | 286 kts | 358° |
| 2026-04-26 17:50 | 49.44744 | 11.22370 | 16237 ft | 286 kts | 358° |
| 2026-04-26 17:50 | 49.46717 | 11.22389 | 16241 ft | 286 kts | 358° |
| 2026-04-26 17:51 | 49.48722 | 11.22402 | 16238 ft | 286 kts | 358° |
| 2026-04-26 17:51 | 49.50695 | 11.22419 | 16235 ft | 286 kts | 358° |
| 2026-04-26 17:51 | 49.52678 | 11.22436 | 16238 ft | 286 kts | 358° |
| 2026-04-26 17:51 | 49.54678 | 11.22455 | 16236 ft | 286 kts | 358° |
| 2026-04-26 17:52 | 49.56674 | 11.22464 | 16247 ft | 285 kts | 357° |
| 2026-04-26 17:52 | 49.58644 | 11.22461 | 16239 ft | 286 kts | 357° |
| 2026-04-26 17:52 | 49.60652 | 11.22466 | 16245 ft | 286 kts | 358° |
| 2026-04-26 17:52 | 49.62630 | 11.22472 | 16240 ft | 285 kts | 357° |
| 2026-04-26 17:53 | 49.64599 | 11.22472 | 16247 ft | 286 kts | 358° |
| 2026-04-26 17:53 | 49.66589 | 11.22477 | 16242 ft | 286 kts | 358° |
| 2026-04-26 17:53 | 49.68573 | 11.22482 | 16240 ft | 286 kts | 358° |
| 2026-04-26 17:54 | 49.72544 | 11.22491 | 16243 ft | 285 kts | 358° |
| 2026-04-26 17:54 | 49.74536 | 11.22497 | 16252 ft | 285 kts | 358° |
| 2026-04-26 17:54 | 49.76530 | 11.22505 | 16253 ft | 285 kts | 358° |
| 2026-04-26 17:54 | 49.78496 | 11.22512 | 16255 ft | 285 kts | 357° |
| 2026-04-26 17:55 | 49.79817 | 11.22513 | 16250 ft | 285 kts | 358° |
| 2026-04-26 17:55 | 49.82486 | 11.22529 | 16250 ft | 285 kts | 358° |
| 2026-04-26 17:55 | 49.84453 | 11.22541 | 16257 ft | 285 kts | 358° |
| 2026-04-26 17:55 | 49.86433 | 11.22553 | 16258 ft | 285 kts | 358° |
| 2026-04-26 17:56 | 49.88426 | 11.22568 | 16260 ft | 285 kts | 358° |
| 2026-04-26 17:56 | 49.92384 | 11.22591 | 16262 ft | 285 kts | 358° |
| 2026-04-26 17:57 | 49.96335 | 11.22612 | 16261 ft | 285 kts | 357° |
| 2026-04-26 17:57 | 49.98317 | 11.22623 | 16260 ft | 285 kts | 358° |
| 2026-04-26 17:57 | 50.00313 | 11.22638 | 16266 ft | 285 kts | 357° |
| 2026-04-26 17:57 | 50.02280 | 11.22647 | 16270 ft | 285 kts | 357° |
| 2026-04-26 17:58 | 50.08238 | 11.22693 | 16267 ft | 285 kts | 357° |
| 2026-04-26 17:59 | 50.12195 | 11.22703 | 16274 ft | 284 kts | 357° |
| 2026-04-26 17:59 | 50.14174 | 11.22718 | 16272 ft | 284 kts | 357° |
| 2026-04-26 17:59 | 50.16140 | 11.22729 | 16278 ft | 284 kts | 357° |
| 2026-04-26 17:59 | 50.18103 | 11.22742 | 16279 ft | 284 kts | 357° |
| 2026-04-26 18:00 | 50.20097 | 11.22753 | 16280 ft | 284 kts | 357° |
| 2026-04-26 18:00 | 50.22075 | 11.22767 | 16278 ft | 284 kts | 357° |
| 2026-04-26 18:00 | 50.24047 | 11.22775 | 16272 ft | 284 kts | 357° |
| 2026-04-26 18:00 | 50.26020 | 11.22789 | 16277 ft | 284 kts | 357° |
| 2026-04-26 18:01 | 50.27985 | 11.22801 | 16281 ft | 284 kts | 357° |
| 2026-04-26 18:01 | 50.29960 | 11.22812 | 16282 ft | 284 kts | 357° |
| 2026-04-26 18:01 | 50.31945 | 11.22825 | 16286 ft | 284 kts | 357° |
| 2026-04-26 18:01 | 50.33910 | 11.22832 | 16282 ft | 284 kts | 357° |
| 2026-04-26 18:02 | 50.35897 | 11.22848 | 16292 ft | 284 kts | 357° |
| 2026-04-26 18:02 | 50.36543 | 11.22844 | 16286 ft | 284 kts | 355° |
| 2026-04-26 18:02 | 50.39806 | 11.22345 | 16287 ft | 281 kts | 349° |
| 2026-04-26 18:02 | 50.41739 | 11.21956 | 16283 ft | 281 kts | 350° |
| 2026-04-26 18:03 | 50.43692 | 11.21608 | 16289 ft | 282 kts | 351° |
| 2026-04-26 18:03 | 50.45633 | 11.21316 | 16284 ft | 282 kts | 351° |
| 2026-04-26 18:03 | 50.47578 | 11.21021 | 16288 ft | 281 kts | 351° |
| 2026-04-26 18:03 | 50.49546 | 11.20723 | 16289 ft | 281 kts | 351° |
| 2026-04-26 18:04 | 50.51483 | 11.20431 | 16291 ft | 282 kts | 351° |
| 2026-04-26 18:04 | 50.53446 | 11.20132 | 16293 ft | 282 kts | 351° |
| 2026-04-26 18:04 | 50.55396 | 11.19842 | 16292 ft | 282 kts | 351° |
| 2026-04-26 18:05 | 50.59302 | 11.19247 | 16293 ft | 281 kts | 352° |
| 2026-04-26 18:05 | 50.61238 | 11.18957 | 16294 ft | 281 kts | 351° |
| 2026-04-26 18:05 | 50.63197 | 11.18657 | 16294 ft | 281 kts | 351° |
| 2026-04-26 18:05 | 50.65146 | 11.18355 | 16285 ft | 281 kts | 351° |
| 2026-04-26 18:06 | 50.67100 | 11.18060 | 16298 ft | 282 kts | 352° |
| 2026-04-26 18:06 | 50.69037 | 11.17772 | 16292 ft | 282 kts | 351° |
| 2026-04-26 18:06 | 50.71001 | 11.17470 | 16287 ft | 282 kts | 351° |
| 2026-04-26 18:06 | 50.72937 | 11.17172 | 16287 ft | 282 kts | 351° |
| 2026-04-26 18:07 | 50.74905 | 11.16872 | 16286 ft | 282 kts | 351° |
| 2026-04-26 18:07 | 50.76841 | 11.16577 | 16280 ft | 282 kts | 351° |
| 2026-04-26 18:07 | 50.78807 | 11.16274 | 16284 ft | 282 kts | 351° |
| 2026-04-26 18:07 | 50.79444 | 11.16175 | 16286 ft | 282 kts | 351° |
| 2026-04-26 18:08 | 50.82706 | 11.15679 | 16278 ft | 282 kts | 351° |
| 2026-04-26 18:08 | 50.84008 | 11.15478 | 16277 ft | 282 kts | 351° |
| 2026-04-26 18:08 | 50.86599 | 11.15079 | 16278 ft | 282 kts | 351° |
| 2026-04-26 18:08 | 50.87898 | 11.14878 | 16273 ft | 282 kts | 351° |
| 2026-04-26 18:09 | 50.89868 | 11.14576 | 16273 ft | 282 kts | 351° |
| 2026-04-26 18:09 | 50.91806 | 11.14276 | 16273 ft | 282 kts | 351° |
| 2026-04-26 18:09 | 50.93762 | 11.13977 | 16272 ft | 282 kts | 351° |
| 2026-04-26 18:09 | 50.95719 | 11.13677 | 16271 ft | 282 kts | 351° |
| 2026-04-26 18:10 | 50.97668 | 11.13374 | 16269 ft | 282 kts | 351° |
| 2026-04-26 18:10 | 50.99606 | 11.13074 | 16268 ft | 282 kts | 351° |
| 2026-04-26 18:10 | 51.01566 | 11.12772 | 16268 ft | 282 kts | 351° |
| 2026-04-26 18:10 | 51.03514 | 11.12473 | 16268 ft | 281 kts | 351° |
| 2026-04-26 18:11 | 51.05443 | 11.12172 | 16269 ft | 281 kts | 351° |
| 2026-04-26 18:11 | 51.07406 | 11.11867 | 16271 ft | 281 kts | 351° |
| 2026-04-26 18:11 | 51.09347 | 11.11566 | 16276 ft | 281 kts | 351° |
| 2026-04-26 18:11 | 51.11299 | 11.11263 | 16274 ft | 281 kts | 351° |
| 2026-04-26 18:12 | 51.13221 | 11.10881 | 16276 ft | 278 kts | 343° |
| 2026-04-26 18:12 | 51.14998 | 11.09832 | 16280 ft | 273 kts | 332° |
| 2026-04-26 18:12 | 51.16713 | 11.08501 | 16275 ft | 273 kts | 330° |
| 2026-04-26 18:12 | 51.18415 | 11.07149 | 16282 ft | 273 kts | 331° |
| 2026-04-26 18:13 | 51.20144 | 11.05848 | 16289 ft | 274 kts | 333° |
| 2026-04-26 18:13 | 51.21893 | 11.04607 | 16286 ft | 275 kts | 333° |
| 2026-04-26 18:13 | 51.23627 | 11.03375 | 16285 ft | 275 kts | 333° |
| 2026-04-26 18:13 | 51.24789 | 11.02509 | 16287 ft | 274 kts | 331° |
| 2026-04-26 18:14 | 51.27046 | 11.00705 | 16288 ft | 274 kts | 330° |
| 2026-04-26 18:14 | 51.28758 | 10.99313 | 16290 ft | 274 kts | 330° |
| 2026-04-26 18:14 | 51.30445 | 10.97940 | 16292 ft | 274 kts | 330° |
| 2026-04-26 18:14 | 51.32170 | 10.96569 | 16297 ft | 274 kts | 331° |
| 2026-04-26 18:15 | 51.33864 | 10.95232 | 16288 ft | 275 kts | 331° |
| 2026-04-26 18:15 | 51.35591 | 10.93869 | 16297 ft | 274 kts | 331° |
| 2026-04-26 18:15 | 51.37295 | 10.92525 | 16293 ft | 274 kts | 331° |
| 2026-04-26 18:15 | 51.39012 | 10.91166 | 16295 ft | 274 kts | 331° |
| 2026-04-26 18:16 | 51.40709 | 10.89823 | 16293 ft | 274 kts | 331° |
| 2026-04-26 18:16 | 51.44143 | 10.87105 | 16297 ft | 275 kts | 331° |
| 2026-04-26 18:16 | 51.45847 | 10.85758 | 16294 ft | 275 kts | 331° |
| 2026-04-26 18:17 | 51.47558 | 10.84402 | 16296 ft | 275 kts | 331° |
| 2026-04-26 18:17 | 51.49285 | 10.83031 | 16297 ft | 275 kts | 331° |
| 2026-04-26 18:17 | 51.50987 | 10.81680 | 16294 ft | 275 kts | 331° |
| 2026-04-26 18:17 | 51.52696 | 10.80322 | 16296 ft | 275 kts | 331° |
| 2026-04-26 18:18 | 51.54412 | 10.78958 | 16300 ft | 275 kts | 331° |
| 2026-04-26 18:18 | 51.56138 | 10.77585 | 16297 ft | 275 kts | 331° |
| 2026-04-26 18:18 | 51.57839 | 10.76230 | 16292 ft | 275 kts | 331° |
| 2026-04-26 18:18 | 51.59561 | 10.74856 | 16293 ft | 275 kts | 331° |
| 2026-04-26 18:19 | 51.61255 | 10.73503 | 16296 ft | 275 kts | 331° |
| 2026-04-26 18:19 | 51.62974 | 10.72130 | 16296 ft | 275 kts | 331° |
| 2026-04-26 18:19 | 51.64670 | 10.70775 | 16292 ft | 275 kts | 331° |
| 2026-04-26 18:19 | 51.66398 | 10.69393 | 16290 ft | 275 kts | 331° |
| 2026-04-26 18:20 | 51.68101 | 10.68029 | 16292 ft | 275 kts | 331° |
| 2026-04-26 18:20 | 51.69821 | 10.66651 | 16294 ft | 275 kts | 331° |
| 2026-04-26 18:20 | 51.71512 | 10.65294 | 16294 ft | 275 kts | 331° |
| 2026-04-26 18:20 | 51.72653 | 10.64378 | 16295 ft | 275 kts | 331° |
| 2026-04-26 18:21 | 51.74927 | 10.62551 | 16292 ft | 274 kts | 331° |
| 2026-04-26 18:21 | 51.76651 | 10.61166 | 16296 ft | 274 kts | 331° |
| 2026-04-26 18:21 | 51.78362 | 10.59789 | 16293 ft | 274 kts | 331° |
| 2026-04-26 18:21 | 51.80058 | 10.58422 | 16296 ft | 274 kts | 331° |
| 2026-04-26 18:22 | 51.81773 | 10.57038 | 16289 ft | 275 kts | 331° |
| 2026-04-26 18:22 | 51.83468 | 10.55672 | 16289 ft | 275 kts | 331° |
| 2026-04-26 18:22 | 51.85186 | 10.54284 | 16287 ft | 275 kts | 331° |
| 2026-04-26 18:22 | 51.86869 | 10.52923 | 16292 ft | 274 kts | 331° |
| 2026-04-26 18:23 | 51.88604 | 10.51521 | 16294 ft | 274 kts | 331° |
| 2026-04-26 18:23 | 51.90293 | 10.50152 | 16271 ft | 275 kts | 331° |
| 2026-04-26 18:23 | 51.92066 | 10.48715 | 15816 ft | 287 kts | 331° |
| 2026-04-26 18:23 | 51.93833 | 10.47305 | 15376 ft | 282 kts | 332° |
| 2026-04-26 18:24 | 51.95590 | 10.45905 | 14934 ft | 277 kts | 332° |
| 2026-04-26 18:24 | 51.97292 | 10.44526 | 14503 ft | 274 kts | 331° |
| 2026-04-26 18:24 | 51.98994 | 10.43139 | 14070 ft | 271 kts | 332° |
| 2026-04-26 18:24 | 52.00663 | 10.41784 | 13594 ft | 269 kts | 332° |
| 2026-04-26 18:25 | 52.02341 | 10.40417 | 13120 ft | 267 kts | 332° |
| 2026-04-26 18:25 | 52.03999 | 10.39068 | 12655 ft | 265 kts | 332° |
| 2026-04-26 18:25 | 52.05631 | 10.37734 | 12200 ft | 264 kts | 332° |
| 2026-04-26 18:25 | 52.07255 | 10.36407 | 11758 ft | 262 kts | 332° |
| 2026-04-26 18:26 | 52.08869 | 10.35090 | 11487 ft | 254 kts | 332° |
| 2026-04-26 18:26 | 52.10423 | 10.33820 | 11286 ft | 246 kts | 332° |
| 2026-04-26 18:26 | 52.11941 | 10.32576 | 11069 ft | 240 kts | 332° |
| 2026-04-26 18:26 | 52.13409 | 10.31373 | 10851 ft | 236 kts | 332° |
| 2026-04-26 18:27 | 52.14874 | 10.30174 | 10611 ft | 233 kts | 332° |
| 2026-04-26 18:27 | 52.16321 | 10.28986 | 10337 ft | 232 kts | 332° |
| 2026-04-26 18:27 | 52.17790 | 10.27773 | 9871 ft | 247 kts | 332° |
| 2026-04-26 18:27 | 52.19362 | 10.26483 | 9397 ft | 252 kts | 333° |
| 2026-04-26 18:28 | 52.20918 | 10.25206 | 8933 ft | 253 kts | 333° |
| 2026-04-26 18:28 | 52.22502 | 10.23901 | 8465 ft | 254 kts | 332° |
| 2026-04-26 18:28 | 52.24068 | 10.22612 | 8010 ft | 255 kts | 332° |
| 2026-04-26 18:28 | 52.25652 | 10.21307 | 7620 ft | 253 kts | 332° |
| 2026-04-26 18:29 | 52.27195 | 10.20035 | 7452 ft | 244 kts | 332° |
| 2026-04-26 18:29 | 52.28724 | 10.18775 | 7023 ft | 246 kts | 332° |
| 2026-04-26 18:29 | 52.30253 | 10.17508 | 6571 ft | 249 kts | 332° |
| 2026-04-26 18:29 | 52.31817 | 10.16207 | 6106 ft | 252 kts | 332° |
| 2026-04-26 18:30 | 52.33369 | 10.14919 | 5640 ft | 254 kts | 333° |
| 2026-04-26 18:30 | 52.34967 | 10.13597 | 5175 ft | 256 kts | 333° |
| 2026-04-26 18:30 | 52.36549 | 10.12290 | 4711 ft | 257 kts | 333° |
| 2026-04-26 18:30 | 52.38161 | 10.10957 | 4230 ft | 257 kts | 333° |
| 2026-04-26 18:31 | 52.39706 | 10.09677 | 3776 ft | 248 kts | 333° |
| 2026-04-26 18:31 | 52.41245 | 10.08394 | 3304 ft | 245 kts | 333° |
| 2026-04-26 18:31 | 52.42733 | 10.07160 | 3086 ft | 234 kts | 333° |
| 2026-04-26 18:31 | 52.44049 | 10.05802 | 3034 ft | 214 kts | 313° |
| 2026-04-26 18:32 | 52.44863 | 10.03895 | 3020 ft | 205 kts | 295° |
| 2026-04-26 18:32 | 52.45050 | 10.01630 | 3013 ft | 198 kts | 269° |
| 2026-04-26 18:32 | 52.45002 | 9.99404 | 3006 ft | 195 kts | 268° |
| 2026-04-26 18:32 | 52.44925 | 9.97111 | 3008 ft | 205 kts | 267° |
| 2026-04-26 18:33 | 52.44840 | 9.94808 | 3006 ft | 200 kts | 267° |
| 2026-04-26 18:33 | 52.44779 | 9.92578 | 2827 ft | 189 kts | 269° |
| 2026-04-26 18:33 | 52.44834 | 9.90495 | 2569 ft | 184 kts | 275° |
| 2026-04-26 18:33 | 52.44932 | 9.88401 | 2326 ft | 175 kts | 274° |
| 2026-04-26 18:34 | 52.44975 | 9.86542 | 2099 ft | 158 kts | 272° |
| 2026-04-26 18:34 | 52.45011 | 9.84810 | 1883 ft | 144 kts | 273° |
| 2026-04-26 18:34 | 52.45057 | 9.83171 | 1691 ft | 139 kts | 274° |
| 2026-04-26 18:34 | 52.45110 | 9.81679 | 1505 ft | 121 kts | 274° |
| 2026-04-26 18:35 | 52.45149 | 9.80387 | 1341 ft | 110 kts | 274° |
| 2026-04-26 18:35 | 52.45182 | 9.79111 | 1188 ft | 113 kts | 273° |
| 2026-04-26 18:35 | 52.45217 | 9.77837 | 1031 ft | 114 kts | 274° |
| 2026-04-26 18:35 | 52.45253 | 9.76525 | 867 ft | 114 kts | 273° |
| 2026-04-26 18:36 | 52.45288 | 9.75262 | 719 ft | 110 kts | 273° |
| 2026-04-26 18:36 | 52.45323 | 9.73998 | 572 ft | 109 kts | 273° |
| 2026-04-26 18:36 | 52.45358 | 9.72774 | 425 ft | 108 kts | 273° |
| 2026-04-26 18:36 | 52.45392 | 9.71547 | 291 ft | 107 kts | 273° |
| 2026-04-26 18:37 | 52.45424 | 9.70352 | 188 ft | 101 kts | 272° |
| 2026-04-26 18:37 | 52.45449 | 9.69491 | 185 ft | 42 kts | 273° |
| 2026-04-26 18:37 | 52.45460 | 9.69164 | 183 ft | 14 kts | 294° |
| 2026-04-26 18:37 | 52.45541 | 9.69136 | 181 ft | 12 kts | 4° |
| 2026-04-26 18:38 | 52.45582 | 9.69140 | 180 ft | 0 kts | 2° |
| 2026-04-26 18:39 | 52.45630 | 9.69143 | 179 ft | 12 kts | 1° |
| 2026-04-26 18:39 | 52.45722 | 9.69148 | 177 ft | 14 kts | 3° |
| 2026-04-26 18:39 | 52.45768 | 9.69257 | 175 ft | 14 kts | 98° |
| 2026-04-26 18:39 | 52.45757 | 9.69400 | 178 ft | 11 kts | 97° |
| 2026-04-26 18:40 | 52.45732 | 9.69497 | 179 ft | 6 kts | 76° |
| 2026-04-26 18:40 | 52.45756 | 9.69550 | 179 ft | 7 kts | 51° |
| 2026-04-26 18:40 | 52.45774 | 9.69588 | 178 ft | 0 kts | 52° |
| 2026-04-26 18:40 | 52.45775 | 9.69590 | 178 ft | 0 kts | 52° |